sensor_id;sensor_type;location;lat;lon;timestamp;P1;durP1;ratioP1;P2;durP2;ratioP2
5209;SDS011;2624;48.048;11.706;2022-11-27T00:04:04;7.47;;;4.00;;
5209;SDS011;2624;48.048;11.706;2022-11-27T00:09:07;15.30;;;6.17;;
5209;SDS011;2624;48.048;11.706;2022-11-27T00:14:12;15.17;;;6.20;;
5209;SDS011;2624;48.048;11.706;2022-11-27T00:19:15;12.17;;;6.90;;
5209;SDS011;2624;48.048;11.706;2022-11-27T00:24:17;9.27;;;4.80;;
5209;SDS011;2624;48.048;11.706;2022-11-27T00:29:20;4.07;;;3.70;;
5209;SDS011;2624;48.048;11.706;2022-11-27T00:34:22;7.13;;;4.60;;
5209;SDS011;2624;48.048;11.706;2022-11-27T00:39:24;13.17;;;5.57;;
5209;SDS011;2624;48.048;11.706;2022-11-27T00:44:28;9.00;;;3.67;;
5209;SDS011;2624;48.048;11.706;2022-11-27T00:49:29;4.63;;;3.07;;
5209;SDS011;2624;48.048;11.706;2022-11-27T00:54:31;2.83;;;2.57;;
5209;SDS011;2624;48.048;11.706;2022-11-27T00:59:35;2.17;;;2.03;;
5209;SDS011;2624;48.048;11.706;2022-11-27T01:04:37;2.07;;;1.97;;
5209;SDS011;2624;48.048;11.706;2022-11-27T01:09:38;3.30;;;2.37;;
5209;SDS011;2624;48.048;11.706;2022-11-27T01:14:42;6.33;;;3.03;;
5209;SDS011;2624;48.048;11.706;2022-11-27T01:19:44;3.17;;;2.90;;
5209;SDS011;2624;48.048;11.706;2022-11-27T01:24:45;3.83;;;2.63;;
5209;SDS011;2624;48.048;11.706;2022-11-27T01:29:49;2.23;;;2.10;;
5209;SDS011;2624;48.048;11.706;2022-11-27T01:34:50;2.40;;;2.20;;
5209;SDS011;2624;48.048;11.706;2022-11-27T01:39:52;1.80;;;1.80;;
5209;SDS011;2624;48.048;11.706;2022-11-27T01:44:55;1.90;;;1.80;;
5209;SDS011;2624;48.048;11.706;2022-11-27T01:49:59;1.63;;;1.53;;
5209;SDS011;2624;48.048;11.706;2022-11-27T01:55:08;1.77;;;1.67;;
5209;SDS011;2624;48.048;11.706;2022-11-27T02:00:15;2.00;;;1.90;;
5209;SDS011;2624;48.048;11.706;2022-11-27T02:05:18;2.17;;;1.77;;
5209;SDS011;2624;48.048;11.706;2022-11-27T02:10:27;3.10;;;1.63;;
5209;SDS011;2624;48.048;11.706;2022-11-27T02:15:38;2.20;;;2.10;;
5209;SDS011;2624;48.048;11.706;2022-11-27T02:20:49;8.93;;;1.77;;
5209;SDS011;2624;48.048;11.706;2022-11-27T02:26:01;5.07;;;2.20;;
5209;SDS011;2624;48.048;11.706;2022-11-27T02:31:20;1.80;;;1.70;;
5209;SDS011;2624;48.048;11.706;2022-11-27T02:36:28;1.73;;;1.60;;
5209;SDS011;2624;48.048;11.706;2022-11-27T02:41:36;1.83;;;1.73;;
5209;SDS011;2624;48.048;11.706;2022-11-27T02:46:43;6.63;;;2.20;;
5209;SDS011;2624;48.048;11.706;2022-11-27T02:51:47;2.13;;;2.03;;
5209;SDS011;2624;48.048;11.706;2022-11-27T02:56:55;1.47;;;1.37;;
5209;SDS011;2624;48.048;11.706;2022-11-27T03:02:03;1.63;;;1.40;;
5209;SDS011;2624;48.048;11.706;2022-11-27T03:07:09;2.40;;;2.30;;
5209;SDS011;2624;48.048;11.706;2022-11-27T03:12:14;1.83;;;1.73;;
5209;SDS011;2624;48.048;11.706;2022-11-27T03:17:24;2.23;;;1.77;;
5209;SDS011;2624;48.048;11.706;2022-11-27T03:22:41;1.77;;;1.67;;
5209;SDS011;2624;48.048;11.706;2022-11-27T03:27:45;5.43;;;1.67;;
5209;SDS011;2624;48.048;11.706;2022-11-27T03:32:50;1.77;;;1.67;;
5209;SDS011;2624;48.048;11.706;2022-11-27T03:37:52;2.70;;;1.63;;
5209;SDS011;2624;48.048;11.706;2022-11-27T03:42:56;1.50;;;1.50;;
5209;SDS011;2624;48.048;11.706;2022-11-27T03:48:08;1.90;;;1.80;;
5209;SDS011;2624;48.048;11.706;2022-11-27T03:53:18;2.00;;;1.90;;
5209;SDS011;2624;48.048;11.706;2022-11-27T03:58:26;2.27;;;2.00;;
5209;SDS011;2624;48.048;11.706;2022-11-27T04:03:35;1.33;;;1.33;;
5209;SDS011;2624;48.048;11.706;2022-11-27T04:08:37;2.20;;;1.40;;
5209;SDS011;2624;48.048;11.706;2022-11-27T04:13:39;1.40;;;1.30;;
5209;SDS011;2624;48.048;11.706;2022-11-27T04:18:43;2.30;;;1.73;;
5209;SDS011;2624;48.048;11.706;2022-11-27T04:23:44;3.17;;;2.73;;
5209;SDS011;2624;48.048;11.706;2022-11-27T04:28:46;2.10;;;2.00;;
5209;SDS011;2624;48.048;11.706;2022-11-27T04:33:49;4.17;;;1.23;;
5209;SDS011;2624;48.048;11.706;2022-11-27T04:38:51;5.43;;;1.40;;
5209;SDS011;2624;48.048;11.706;2022-11-27T04:43:53;1.60;;;1.50;;
5209;SDS011;2624;48.048;11.706;2022-11-27T04:48:56;1.30;;;1.30;;
5209;SDS011;2624;48.048;11.706;2022-11-27T04:53:58;1.50;;;1.40;;
5209;SDS011;2624;48.048;11.706;2022-11-27T04:59:00;1.57;;;1.47;;
5209;SDS011;2624;48.048;11.706;2022-11-27T05:04:03;2.50;;;1.80;;
5209;SDS011;2624;48.048;11.706;2022-11-27T05:09:05;2.13;;;1.90;;
5209;SDS011;2624;48.048;11.706;2022-11-27T05:14:07;1.60;;;1.50;;
5209;SDS011;2624;48.048;11.706;2022-11-27T05:19:17;1.80;;;1.70;;
5209;SDS011;2624;48.048;11.706;2022-11-27T05:24:21;1.83;;;1.73;;
5209;SDS011;2624;48.048;11.706;2022-11-27T05:29:25;2.77;;;2.20;;
5209;SDS011;2624;48.048;11.706;2022-11-27T05:34:28;1.23;;;1.23;;
5209;SDS011;2624;48.048;11.706;2022-11-27T05:39:30;1.63;;;1.60;;
5209;SDS011;2624;48.048;11.706;2022-11-27T05:44:31;1.73;;;1.63;;
5209;SDS011;2624;48.048;11.706;2022-11-27T05:49:35;6.67;;;1.77;;
5209;SDS011;2624;48.048;11.706;2022-11-27T05:54:37;2.47;;;1.87;;
5209;SDS011;2624;48.048;11.706;2022-11-27T05:59:39;2.47;;;1.80;;
5209;SDS011;2624;48.048;11.706;2022-11-27T06:04:42;1.93;;;1.80;;
5209;SDS011;2624;48.048;11.706;2022-11-27T06:09:44;1.33;;;1.23;;
5209;SDS011;2624;48.048;11.706;2022-11-27T06:14:46;1.83;;;1.33;;
5209;SDS011;2624;48.048;11.706;2022-11-27T06:19:49;1.03;;;1.03;;
5209;SDS011;2624;48.048;11.706;2022-11-27T06:24:51;1.57;;;1.20;;
5209;SDS011;2624;48.048;11.706;2022-11-27T06:29:53;1.43;;;1.33;;
5209;SDS011;2624;48.048;11.706;2022-11-27T06:34:56;1.40;;;1.30;;
5209;SDS011;2624;48.048;11.706;2022-11-27T06:39:58;1.60;;;1.50;;
5209;SDS011;2624;48.048;11.706;2022-11-27T06:45:00;1.70;;;1.60;;
5209;SDS011;2624;48.048;11.706;2022-11-27T06:50:03;5.30;;;1.57;;
5209;SDS011;2624;48.048;11.706;2022-11-27T06:55:06;1.53;;;1.47;;
5209;SDS011;2624;48.048;11.706;2022-11-27T07:00:08;3.33;;;1.87;;
5209;SDS011;2624;48.048;11.706;2022-11-27T07:05:12;1.87;;;1.67;;
5209;SDS011;2624;48.048;11.706;2022-11-27T07:10:14;1.80;;;1.70;;
5209;SDS011;2624;48.048;11.706;2022-11-27T07:15:16;1.40;;;1.30;;
5209;SDS011;2624;48.048;11.706;2022-11-27T07:20:19;3.43;;;2.10;;
5209;SDS011;2624;48.048;11.706;2022-11-27T07:25:21;2.10;;;2.00;;
5209;SDS011;2624;48.048;11.706;2022-11-27T07:30:23;2.90;;;1.90;;
5209;SDS011;2624;48.048;11.706;2022-11-27T07:35:26;1.70;;;1.70;;
5209;SDS011;2624;48.048;11.706;2022-11-27T07:40:28;4.40;;;1.57;;
5209;SDS011;2624;48.048;11.706;2022-11-27T07:45:29;1.80;;;1.70;;
5209;SDS011;2624;48.048;11.706;2022-11-27T07:50:33;2.00;;;1.77;;
5209;SDS011;2624;48.048;11.706;2022-11-27T07:55:36;2.07;;;1.97;;
5209;SDS011;2624;48.048;11.706;2022-11-27T08:00:38;1.77;;;1.60;;
5209;SDS011;2624;48.048;11.706;2022-11-27T08:05:42;3.93;;;1.97;;
5209;SDS011;2624;48.048;11.706;2022-11-27T08:10:43;2.40;;;2.30;;
5209;SDS011;2624;48.048;11.706;2022-11-27T08:15:45;2.90;;;2.70;;
5209;SDS011;2624;48.048;11.706;2022-11-27T08:20:49;2.60;;;2.33;;
5209;SDS011;2624;48.048;11.706;2022-11-27T08:25:50;2.07;;;1.97;;
5209;SDS011;2624;48.048;11.706;2022-11-27T08:30:56;2.40;;;1.93;;
5209;SDS011;2624;48.048;11.706;2022-11-27T08:36:00;3.87;;;3.00;;
5209;SDS011;2624;48.048;11.706;2022-11-27T08:41:03;2.70;;;2.50;;
5209;SDS011;2624;48.048;11.706;2022-11-27T08:46:07;3.13;;;2.90;;
5209;SDS011;2624;48.048;11.706;2022-11-27T08:51:11;2.57;;;2.40;;
5209;SDS011;2624;48.048;11.706;2022-11-27T08:56:15;4.70;;;2.87;;
5209;SDS011;2624;48.048;11.706;2022-11-27T09:01:18;2.60;;;2.40;;
5209;SDS011;2624;48.048;11.706;2022-11-27T09:06:23;2.03;;;1.93;;
5209;SDS011;2624;48.048;11.706;2022-11-27T09:11:28;2.37;;;2.27;;
5209;SDS011;2624;48.048;11.706;2022-11-27T09:16:31;1.80;;;1.70;;
5209;SDS011;2624;48.048;11.706;2022-11-27T09:21:34;3.00;;;2.73;;
5209;SDS011;2624;48.048;11.706;2022-11-27T09:26:37;4.47;;;3.50;;
5209;SDS011;2624;48.048;11.706;2022-11-27T09:31:39;3.23;;;2.93;;
5209;SDS011;2624;48.048;11.706;2022-11-27T09:36:42;3.63;;;3.33;;
5209;SDS011;2624;48.048;11.706;2022-11-27T09:41:45;2.30;;;2.20;;
5209;SDS011;2624;48.048;11.706;2022-11-27T09:46:49;3.03;;;2.80;;
5209;SDS011;2624;48.048;11.706;2022-11-27T09:51:56;3.40;;;2.53;;
5209;SDS011;2624;48.048;11.706;2022-11-27T09:57:03;4.83;;;3.70;;
5209;SDS011;2624;48.048;11.706;2022-11-27T10:02:11;8.27;;;3.40;;
5209;SDS011;2624;48.048;11.706;2022-11-27T10:07:22;12.23;;;4.90;;
5209;SDS011;2624;48.048;11.706;2022-11-27T10:12:34;4.83;;;4.00;;
5209;SDS011;2624;48.048;11.706;2022-11-27T10:17:48;11.80;;;4.57;;
5209;SDS011;2624;48.048;11.706;2022-11-27T10:22:59;8.30;;;5.70;;
5209;SDS011;2624;48.048;11.706;2022-11-27T10:28:09;9.33;;;4.80;;
5209;SDS011;2624;48.048;11.706;2022-11-27T10:33:21;10.27;;;4.90;;
5209;SDS011;2624;48.048;11.706;2022-11-27T10:38:38;5.07;;;3.73;;
5209;SDS011;2624;48.048;11.706;2022-11-27T10:43:41;7.03;;;4.30;;
5209;SDS011;2624;48.048;11.706;2022-11-27T10:48:42;3.03;;;2.80;;
5209;SDS011;2624;48.048;11.706;2022-11-27T10:53:46;5.53;;;4.10;;
5209;SDS011;2624;48.048;11.706;2022-11-27T10:58:54;3.93;;;3.47;;
5209;SDS011;2624;48.048;11.706;2022-11-27T11:04:04;5.13;;;4.63;;
5209;SDS011;2624;48.048;11.706;2022-11-27T11:09:13;3.60;;;3.30;;
5209;SDS011;2624;48.048;11.706;2022-11-27T11:14:17;5.30;;;3.70;;
5209;SDS011;2624;48.048;11.706;2022-11-27T11:19:20;3.37;;;3.10;;
5209;SDS011;2624;48.048;11.706;2022-11-27T11:24:30;4.03;;;3.70;;
5209;SDS011;2624;48.048;11.706;2022-11-27T11:29:34;3.87;;;2.23;;
5209;SDS011;2624;48.048;11.706;2022-11-27T11:34:40;5.10;;;3.30;;
5209;SDS011;2624;48.048;11.706;2022-11-27T11:39:45;1.27;;;1.27;;
5209;SDS011;2624;48.048;11.706;2022-11-27T11:44:53;4.53;;;2.07;;
5209;SDS011;2624;48.048;11.706;2022-11-27T11:50:00;3.70;;;1.83;;
5209;SDS011;2624;48.048;11.706;2022-11-27T11:55:05;2.60;;;2.13;;
5209;SDS011;2624;48.048;11.706;2022-11-27T12:00:16;1.90;;;1.80;;
5209;SDS011;2624;48.048;11.706;2022-11-27T12:05:23;3.37;;;1.90;;
5209;SDS011;2624;48.048;11.706;2022-11-27T12:10:36;2.30;;;1.70;;
5209;SDS011;2624;48.048;11.706;2022-11-27T12:15:47;1.93;;;1.73;;
5209;SDS011;2624;48.048;11.706;2022-11-27T12:20:57;5.97;;;1.77;;
5209;SDS011;2624;48.048;11.706;2022-11-27T12:26:15;2.20;;;2.10;;
5209;SDS011;2624;48.048;11.706;2022-11-27T12:31:24;2.00;;;1.63;;
5209;SDS011;2624;48.048;11.706;2022-11-27T12:36:44;4.37;;;1.90;;
5209;SDS011;2624;48.048;11.706;2022-11-27T12:42:04;1.80;;;1.70;;
5209;SDS011;2624;48.048;11.706;2022-11-27T12:47:15;2.57;;;2.37;;
5209;SDS011;2624;48.048;11.706;2022-11-27T12:52:23;1.90;;;1.80;;
5209;SDS011;2624;48.048;11.706;2022-11-27T12:57:32;2.70;;;2.30;;
5209;SDS011;2624;48.048;11.706;2022-11-27T13:02:39;2.27;;;2.10;;
5209;SDS011;2624;48.048;11.706;2022-11-27T13:07:46;2.03;;;1.90;;
5209;SDS011;2624;48.048;11.706;2022-11-27T13:12:56;2.27;;;2.13;;
5209;SDS011;2624;48.048;11.706;2022-11-27T13:18:09;2.20;;;2.03;;
5209;SDS011;2624;48.048;11.706;2022-11-27T13:23:18;5.50;;;3.20;;
5209;SDS011;2624;48.048;11.706;2022-11-27T13:28:23;2.97;;;2.77;;
5209;SDS011;2624;48.048;11.706;2022-11-27T13:33:31;3.23;;;3.00;;
5209;SDS011;2624;48.048;11.706;2022-11-27T13:38:37;4.33;;;3.93;;
5209;SDS011;2624;48.048;11.706;2022-11-27T13:43:42;5.20;;;3.57;;
5209;SDS011;2624;48.048;11.706;2022-11-27T13:48:47;4.87;;;3.57;;
5209;SDS011;2624;48.048;11.706;2022-11-27T13:53:52;6.60;;;3.63;;
5209;SDS011;2624;48.048;11.706;2022-11-27T13:59:17;5.40;;;3.73;;
5209;SDS011;2624;48.048;11.706;2022-11-27T14:04:21;2.77;;;2.57;;
5209;SDS011;2624;48.048;11.706;2022-11-27T14:09:30;3.50;;;3.20;;
5209;SDS011;2624;48.048;11.706;2022-11-27T14:14:36;2.97;;;2.80;;
5209;SDS011;2624;48.048;11.706;2022-11-27T14:19:40;6.10;;;2.73;;
5209;SDS011;2624;48.048;11.706;2022-11-27T14:24:51;13.00;;;3.77;;
5209;SDS011;2624;48.048;11.706;2022-11-27T14:29:56;4.57;;;2.27;;
5209;SDS011;2624;48.048;11.706;2022-11-27T14:34:58;2.10;;;2.00;;
5209;SDS011;2624;48.048;11.706;2022-11-27T14:40:00;3.20;;;2.67;;
5209;SDS011;2624;48.048;11.706;2022-11-27T14:45:16;5.80;;;3.23;;
5209;SDS011;2624;48.048;11.706;2022-11-27T14:50:19;2.70;;;2.57;;
5209;SDS011;2624;48.048;11.706;2022-11-27T14:55:22;5.70;;;4.13;;
5209;SDS011;2624;48.048;11.706;2022-11-27T15:00:26;4.27;;;3.87;;
5209;SDS011;2624;48.048;11.706;2022-11-27T15:05:28;3.07;;;2.77;;
5209;SDS011;2624;48.048;11.706;2022-11-27T15:10:32;8.03;;;4.80;;
5209;SDS011;2624;48.048;11.706;2022-11-27T15:15:38;4.07;;;3.23;;
5209;SDS011;2624;48.048;11.706;2022-11-27T15:20:43;3.47;;;3.10;;
5209;SDS011;2624;48.048;11.706;2022-11-27T15:25:46;3.30;;;3.07;;
5209;SDS011;2624;48.048;11.706;2022-11-27T15:30:51;10.50;;;5.37;;
5209;SDS011;2624;48.048;11.706;2022-11-27T15:35:53;6.87;;;5.13;;
5209;SDS011;2624;48.048;11.706;2022-11-27T15:41:18;7.63;;;5.00;;
5209;SDS011;2624;48.048;11.706;2022-11-27T15:46:23;10.27;;;6.30;;
5209;SDS011;2624;48.048;11.706;2022-11-27T15:51:29;10.20;;;6.50;;
5209;SDS011;2624;48.048;11.706;2022-11-27T15:56:30;9.30;;;7.30;;
5209;SDS011;2624;48.048;11.706;2022-11-27T16:01:34;9.40;;;5.37;;
5209;SDS011;2624;48.048;11.706;2022-11-27T16:06:36;9.20;;;5.50;;
5209;SDS011;2624;48.048;11.706;2022-11-27T16:11:38;7.77;;;5.63;;
5209;SDS011;2624;48.048;11.706;2022-11-27T16:16:41;6.40;;;4.73;;
5209;SDS011;2624;48.048;11.706;2022-11-27T16:21:43;5.90;;;5.27;;
5209;SDS011;2624;48.048;11.706;2022-11-27T16:26:45;8.73;;;5.23;;
5209;SDS011;2624;48.048;11.706;2022-11-27T16:31:48;8.83;;;6.93;;
5209;SDS011;2624;48.048;11.706;2022-11-27T16:36:49;8.70;;;5.83;;
5209;SDS011;2624;48.048;11.706;2022-11-27T16:41:51;7.87;;;4.60;;
5209;SDS011;2624;48.048;11.706;2022-11-27T16:46:54;7.27;;;4.87;;
5209;SDS011;2624;48.048;11.706;2022-11-27T16:51:56;5.43;;;3.90;;
5209;SDS011;2624;48.048;11.706;2022-11-27T16:56:58;6.63;;;5.63;;
5209;SDS011;2624;48.048;11.706;2022-11-27T17:02:02;8.70;;;5.07;;
5209;SDS011;2624;48.048;11.706;2022-11-27T17:07:03;8.63;;;5.70;;
5209;SDS011;2624;48.048;11.706;2022-11-27T17:12:06;8.60;;;5.83;;
5209;SDS011;2624;48.048;11.706;2022-11-27T17:17:09;9.60;;;7.37;;
5209;SDS011;2624;48.048;11.706;2022-11-27T17:22:11;8.30;;;4.67;;
5209;SDS011;2624;48.048;11.706;2022-11-27T17:27:13;7.37;;;5.53;;
5209;SDS011;2624;48.048;11.706;2022-11-27T17:32:16;7.30;;;5.73;;
5209;SDS011;2624;48.048;11.706;2022-11-27T17:37:18;4.93;;;4.53;;
5209;SDS011;2624;48.048;11.706;2022-11-27T17:42:20;6.33;;;4.30;;
5209;SDS011;2624;48.048;11.706;2022-11-27T17:47:23;5.10;;;4.10;;
5209;SDS011;2624;48.048;11.706;2022-11-27T17:52:24;6.97;;;4.80;;
5209;SDS011;2624;48.048;11.706;2022-11-27T17:57:26;7.90;;;4.70;;
5209;SDS011;2624;48.048;11.706;2022-11-27T18:02:29;5.87;;;5.27;;
5209;SDS011;2624;48.048;11.706;2022-11-27T18:07:31;9.33;;;5.13;;
5209;SDS011;2624;48.048;11.706;2022-11-27T18:12:33;5.20;;;4.70;;
5209;SDS011;2624;48.048;11.706;2022-11-27T18:17:37;10.00;;;4.77;;
5209;SDS011;2624;48.048;11.706;2022-11-27T18:22:39;9.47;;;7.07;;
5209;SDS011;2624;48.048;11.706;2022-11-27T18:27:40;10.93;;;6.27;;
5209;SDS011;2624;48.048;11.706;2022-11-27T18:32:44;10.73;;;6.37;;
5209;SDS011;2624;48.048;11.706;2022-11-27T18:37:45;12.53;;;8.90;;
5209;SDS011;2624;48.048;11.706;2022-11-27T18:42:47;11.20;;;7.17;;
5209;SDS011;2624;48.048;11.706;2022-11-27T18:47:50;13.60;;;6.97;;
5209;SDS011;2624;48.048;11.706;2022-11-27T18:52:52;16.13;;;8.40;;
5209;SDS011;2624;48.048;11.706;2022-11-27T18:57:54;8.00;;;6.30;;
5209;SDS011;2624;48.048;11.706;2022-11-27T19:02:57;14.33;;;7.70;;
5209;SDS011;2624;48.048;11.706;2022-11-27T19:07:59;11.70;;;6.47;;
5209;SDS011;2624;48.048;11.706;2022-11-27T19:13:03;9.43;;;6.27;;
5209;SDS011;2624;48.048;11.706;2022-11-27T19:18:06;15.13;;;7.90;;
5209;SDS011;2624;48.048;11.706;2022-11-27T19:23:08;16.53;;;7.30;;
5209;SDS011;2624;48.048;11.706;2022-11-27T19:28:10;11.47;;;7.60;;
5209;SDS011;2624;48.048;11.706;2022-11-27T19:33:14;16.50;;;8.10;;
5209;SDS011;2624;48.048;11.706;2022-11-27T19:38:16;16.00;;;10.00;;
5209;SDS011;2624;48.048;11.706;2022-11-27T19:43:17;14.57;;;7.27;;
5209;SDS011;2624;48.048;11.706;2022-11-27T19:48:20;14.87;;;8.50;;
5209;SDS011;2624;48.048;11.706;2022-11-27T19:53:22;15.77;;;6.80;;
5209;SDS011;2624;48.048;11.706;2022-11-27T19:58:25;18.07;;;9.50;;
5209;SDS011;2624;48.048;11.706;2022-11-27T20:03:29;12.30;;;8.30;;
5209;SDS011;2624;48.048;11.706;2022-11-27T20:08:30;14.17;;;6.93;;
5209;SDS011;2624;48.048;11.706;2022-11-27T20:13:33;14.20;;;6.60;;
5209;SDS011;2624;48.048;11.706;2022-11-27T20:18:36;17.70;;;9.60;;
5209;SDS011;2624;48.048;11.706;2022-11-27T20:23:38;12.90;;;8.00;;
5209;SDS011;2624;48.048;11.706;2022-11-27T20:28:41;18.63;;;10.20;;
5209;SDS011;2624;48.048;11.706;2022-11-27T20:33:44;12.90;;;7.73;;
5209;SDS011;2624;48.048;11.706;2022-11-27T20:38:46;10.87;;;6.13;;
5209;SDS011;2624;48.048;11.706;2022-11-27T20:43:52;16.30;;;9.53;;
5209;SDS011;2624;48.048;11.706;2022-11-27T20:48:57;14.07;;;8.83;;
5209;SDS011;2624;48.048;11.706;2022-11-27T20:54:00;19.47;;;9.30;;
5209;SDS011;2624;48.048;11.706;2022-11-27T20:59:02;15.23;;;9.33;;
5209;SDS011;2624;48.048;11.706;2022-11-27T21:04:14;14.83;;;8.87;;
5209;SDS011;2624;48.048;11.706;2022-11-27T21:09:19;14.30;;;8.70;;
5209;SDS011;2624;48.048;11.706;2022-11-27T21:14:21;15.33;;;9.50;;
5209;SDS011;2624;48.048;11.706;2022-11-27T21:19:25;14.43;;;8.53;;
5209;SDS011;2624;48.048;11.706;2022-11-27T21:24:27;13.60;;;8.50;;
5209;SDS011;2624;48.048;11.706;2022-11-27T21:29:29;14.87;;;8.13;;
5209;SDS011;2624;48.048;11.706;2022-11-27T21:34:32;17.40;;;10.87;;
5209;SDS011;2624;48.048;11.706;2022-11-27T21:39:34;17.63;;;9.60;;
5209;SDS011;2624;48.048;11.706;2022-11-27T21:44:36;14.93;;;8.80;;
5209;SDS011;2624;48.048;11.706;2022-11-27T21:49:41;15.27;;;9.53;;
5209;SDS011;2624;48.048;11.706;2022-11-27T21:54:43;9.97;;;4.60;;
5209;SDS011;2624;48.048;11.706;2022-11-27T21:59:45;13.10;;;7.17;;
5209;SDS011;2624;48.048;11.706;2022-11-27T22:04:48;10.20;;;6.70;;
5209;SDS011;2624;48.048;11.706;2022-11-27T22:09:50;14.63;;;7.63;;
5209;SDS011;2624;48.048;11.706;2022-11-27T22:14:52;11.13;;;6.07;;
5209;SDS011;2624;48.048;11.706;2022-11-27T22:19:55;6.80;;;5.03;;
5209;SDS011;2624;48.048;11.706;2022-11-27T22:24:57;7.83;;;5.00;;
5209;SDS011;2624;48.048;11.706;2022-11-27T22:29:59;11.33;;;5.00;;
5209;SDS011;2624;48.048;11.706;2022-11-27T22:35:02;8.63;;;5.60;;
5209;SDS011;2624;48.048;11.706;2022-11-27T22:40:05;7.93;;;5.70;;
5209;SDS011;2624;48.048;11.706;2022-11-27T22:45:08;14.67;;;7.83;;
5209;SDS011;2624;48.048;11.706;2022-11-27T22:50:11;11.17;;;4.80;;
5209;SDS011;2624;48.048;11.706;2022-11-27T22:55:13;7.13;;;4.80;;
5209;SDS011;2624;48.048;11.706;2022-11-27T23:00:15;8.73;;;4.87;;
5209;SDS011;2624;48.048;11.706;2022-11-27T23:05:19;9.10;;;4.50;;
5209;SDS011;2624;48.048;11.706;2022-11-27T23:10:20;5.70;;;4.10;;
5209;SDS011;2624;48.048;11.706;2022-11-27T23:15:22;8.40;;;4.67;;
5209;SDS011;2624;48.048;11.706;2022-11-27T23:20:25;9.40;;;4.60;;
5209;SDS011;2624;48.048;11.706;2022-11-27T23:25:27;12.33;;;4.70;;
5209;SDS011;2624;48.048;11.706;2022-11-27T23:30:31;9.00;;;5.03;;
5209;SDS011;2624;48.048;11.706;2022-11-27T23:35:34;7.03;;;4.30;;
5209;SDS011;2624;48.048;11.706;2022-11-27T23:40:36;5.03;;;4.53;;
5209;SDS011;2624;48.048;11.706;2022-11-27T23:45:38;8.37;;;5.20;;
5209;SDS011;2624;48.048;11.706;2022-11-27T23:50:41;7.40;;;5.93;;
5209;SDS011;2624;48.048;11.706;2022-11-27T23:55:43;7.67;;;4.50;;
